Station Historical Data
Daily Summary for January 23, 2018 Units:  English    Metric   Both
« Previous Day
Next Day »
Daily Weekly Monthly Yearly Custom
  High: Low: Average:
Temperature: TemperatureF °F 33.7 °F 41.7 °F
Dew Point: DewpointF °F 29.7 °F 37.4 °F
Humidity: Humidity% 68% 85%
Wind Speed: WindSpeedMPHmph 0.0mph 8mph
Wind Gust: WindSpeedGustMPHmph - -
Wind- - SSW
Pressure: PressureIn in 29.50 in -
Precipitation: 0.25 in    
Historical Graphs
 
 
Tabular Data for January 23, 2018
Time Temperature Dew Point Pressure Wind Wind Speed Wind Gust Humidity Rainfall Rate (Hourly)
TemperatureF °F DewpointF °F PressureIn in Calm     Humidity% HourlyPrecipIn in
00:04 48.0 °F 44.6 °F 29.63 in SSE 1.0 mph 6.0 mph 88% 0.03 in
00:09 48.0 °F 44.6 °F 29.63 in SSE 2.0 mph 6.0 mph 88% 0.03 in
00:14 48.0 °F 44.6 °F 29.62 in SSE 2.0 mph 7.0 mph 88% 0.03 in
00:19 48.3 °F 44.9 °F 29.62 in SSE 1.0 mph 7.0 mph 88% 0.02 in
00:24 48.7 °F 45.0 °F 29.61 in SSE 4.0 mph 6.0 mph 87% 0.02 in
00:29 48.9 °F 45.2 °F 29.61 in SSE 2.0 mph 5.0 mph 87% 0.02 in
00:34 48.7 °F 44.7 °F 29.60 in SSE 1.0 mph 4.0 mph 86% 0.01 in
00:39 48.7 °F 44.7 °F 29.60 in SSE 2.0 mph 5.0 mph 86% 0.01 in
00:49 48.7 °F 44.4 °F 29.59 in SSE 2.0 mph 5.0 mph 85% 0.01 in
00:54 48.8 °F 44.5 °F 29.59 in SSE 3.0 mph 5.0 mph 85% 0.00 in
00:59 48.9 °F 44.6 °F 29.59 in SSE 5.0 mph 7.0 mph 85% 0.00 in
01:04 49.1 °F 44.5 °F 29.58 in SSE 4.0 mph 6.0 mph 84% 0.00 in
01:09 49.2 °F 44.6 °F 29.59 in SE 3.0 mph 6.0 mph 84% 0.00 in
01:14 49.4 °F 44.5 °F 29.58 in SSE 3.0 mph 6.0 mph 83% 0.00 in
01:19 49.6 °F 44.6 °F 29.58 in SSE 4.0 mph 11.0 mph 83% 0.00 in
01:24 49.9 °F 44.6 °F 29.58 in South 4.0 mph 11.0 mph 82% 0.00 in
01:29 50.1 °F 44.5 °F 29.57 in SSW 7.0 mph 10.0 mph 81% 0.00 in
01:34 50.4 °F 44.8 °F 29.57 in SSE 5.0 mph 14.0 mph 81% 0.00 in
01:39 50.6 °F 44.7 °F 29.57 in SE 6.0 mph 11.0 mph 80% 0.00 in
01:44 50.6 °F 44.3 °F 29.57 in SSE 5.0 mph 11.0 mph 79% 0.00 in
01:49 50.6 °F 44.0 °F 29.56 in SSE 5.0 mph 12.0 mph 78% 0.00 in
01:54 50.7 °F 44.1 °F 29.56 in SSE 6.0 mph 15.0 mph 78% 0.00 in
02:09 50.7 °F 43.8 °F 29.54 in SE 2.0 mph 16.0 mph 77% 0.00 in
02:14 50.7 °F 43.8 °F 29.54 in SSE 13.0 mph 13.0 mph 77% 0.00 in
02:19 50.8 °F 43.8 °F 29.53 in SSE 6.0 mph 15.0 mph 77% 0.00 in
02:24 50.7 °F 43.8 °F 29.53 in SSE 6.0 mph 15.0 mph 77% 0.00 in
02:29 50.8 °F 43.8 °F 29.53 in SSE 5.0 mph 10.0 mph 77% 0.00 in
02:34 51.0 °F 44.0 °F 29.52 in SSE 9.0 mph 11.0 mph 77% 0.00 in
02:44 51.5 °F 44.2 °F 29.52 in South 6.0 mph 15.0 mph 76% 0.00 in
02:49 51.7 °F 44.4 °F 29.51 in SSE 7.0 mph 15.0 mph 76% 0.00 in
02:59 51.8 °F 44.5 °F 29.51 in SSE 8.0 mph 19.0 mph 76% 0.00 in
03:04 52.0 °F 44.7 °F 29.51 in SSE 8.0 mph 19.0 mph 76% 0.00 in
03:09 52.2 °F 44.9 °F 29.50 in SSE 9.0 mph 19.0 mph 76% 0.00 in
03:14 52.1 °F 44.8 °F 29.50 in SSE 7.0 mph 17.0 mph 76% 0.00 in
03:19 52.0 °F 44.7 °F 29.50 in SSE 11.0 mph 18.0 mph 76% 0.00 in
03:24 52.0 °F 44.7 °F 29.52 in South 9.0 mph 18.0 mph 76% 0.00 in
03:29 52.0 °F 45.0 °F 29.53 in South 8.0 mph 18.0 mph 77% 0.00 in
03:34 52.2 °F 45.2 °F 29.56 in SSW 25.0 mph 25.0 mph 77% 0.00 in
03:39 51.4 °F 44.4 °F 29.57 in SSW 11.0 mph 33.0 mph 77% 0.01 in
03:44 49.5 °F 42.9 °F 29.58 in WSW 10.0 mph 23.0 mph 78% 0.01 in
03:49 47.5 °F 41.6 °F 29.58 in SW 8.0 mph 18.0 mph 80% 0.01 in
03:54 46.1 °F 40.9 °F 29.58 in WSW 10.0 mph 18.0 mph 82% 0.01 in
04:04 44.4 °F 39.9 °F 29.59 in WSW 8.0 mph 14.0 mph 84% 0.03 in
04:09 43.8 °F 39.6 °F 29.59 in WSW 7.0 mph 15.0 mph 85% 0.05 in
04:14 43.1 °F 38.9 °F 29.59 in SW 6.0 mph 15.0 mph 85% 0.06 in
04:19 42.4 °F 38.5 °F 29.59 in SW 7.0 mph 15.0 mph 86% 0.08 in
04:24 41.8 °F 38.2 °F 29.60 in SSW 6.0 mph 15.0 mph 87% 0.10 in
04:29 41.4 °F 37.8 °F 29.60 in SW 7.0 mph 18.0 mph 87% 0.11 in
04:34 41.2 °F 37.9 °F 29.59 in WSW 6.0 mph 18.0 mph 88% 0.12 in
04:44 41.1 °F 38.1 °F 29.59 in SW 4.0 mph 10.0 mph 89% 0.13 in
04:49 41.2 °F 38.2 °F 29.59 in SW 7.0 mph 9.0 mph 89% 0.14 in
04:54 41.3 °F 38.6 °F 29.59 in SSW 5.0 mph 7.0 mph 90% 0.15 in
04:59 41.5 °F 38.8 °F 29.58 in SW 6.0 mph 13.0 mph 90% 0.15 in
05:09 41.8 °F 39.1 °F 29.59 in SSW 4.0 mph 9.0 mph 90% 0.15 in
05:19 42.4 °F 40.0 °F 29.60 in SSW 4.0 mph 8.0 mph 91% 0.13 in
05:24 42.7 °F 40.3 °F 29.59 in SW 2.0 mph 7.0 mph 91% 0.11 in
05:29 42.8 °F 40.4 °F 29.58 in SSW 4.0 mph 7.0 mph 91% 0.11 in
05:34 42.9 °F 40.5 °F 29.58 in South 3.0 mph 7.0 mph 91% 0.10 in
05:39 42.9 °F 40.5 °F 29.57 in South 3.0 mph 4.0 mph 91% 0.09 in
05:44 43.0 °F 40.6 °F 29.57 in SSE 2.0 mph 5.0 mph 91% 0.08 in
05:49 43.2 °F 40.8 °F 29.55 in SSE 3.0 mph 4.0 mph 91% 0.07 in
05:54 43.4 °F 40.9 °F 29.56 in SSW 2.0 mph 5.0 mph 91% 0.06 in
05:59 43.2 °F 40.8 °F 29.55 in Calm   3.0 mph 91% 0.05 in
06:04 43.1 °F 40.7 °F 29.56 in SSW 2.0 mph 4.0 mph 91% 0.03 in
06:09 42.9 °F 40.5 °F 29.54 in SSW 1.0 mph 4.0 mph 91% 0.02 in
06:19 42.5 °F 40.1 °F 29.56 in Calm     91% 0.01 in
06:29 42.2 °F 40.0 °F 29.56 in Calm     92% 0.00 in
06:34 42.2 °F 40.0 °F 29.56 in South 1.0 mph 3.0 mph 92% 0.00 in
06:39 42.4 °F 40.2 °F 29.56 in South 1.0 mph 4.0 mph 92% 0.00 in
06:44 42.5 °F 40.3 °F 29.55 in Calm   3.0 mph 92% 0.00 in
06:49 42.8 °F 40.6 °F 29.53 in SE 1.0 mph 4.0 mph 92% 0.00 in
06:54 42.8 °F 40.6 °F 29.53 in Calm   2.0 mph 92% 0.00 in
06:59 42.8 °F 40.6 °F 29.54 in Calm     92% 0.00 in
07:04 42.6 °F 40.4 °F 29.54 in Calm     92% 0.00 in
07:09 42.6 °F 40.4 °F 29.54 in Calm     92% 0.00 in
07:14 42.6 °F 40.4 °F 29.54 in Calm     92% 0.00 in
07:19 42.4 °F 40.2 °F 29.54 in Calm     92% 0.00 in
07:24 42.3 °F 40.1 °F 29.55 in Calm     92% 0.00 in
07:29 42.4 °F 40.2 °F 29.55 in Calm   4.0 mph 92% 0.00 in
07:39 42.9 °F 40.7 °F 29.55 in SSE 2.0 mph 5.0 mph 92% 0.00 in
07:44 43.1 °F 40.9 °F 29.53 in South 1.0 mph 4.0 mph 92% 0.00 in
07:49 43.2 °F 41.0 °F 29.53 in South 1.0 mph 3.0 mph 92% 0.00 in
07:54 43.3 °F 41.1 °F 29.53 in South 2.0 mph 4.0 mph 92% 0.00 in
08:04 43.5 °F 41.3 °F 29.53 in SSW 4.0 mph 5.0 mph 92% 0.00 in
08:09 43.5 °F 41.3 °F 29.53 in SSW 2.0 mph 4.0 mph 92% 0.00 in
08:14 43.6 °F 41.4 °F 29.54 in Calm   4.0 mph 92% 0.00 in
08:19 43.6 °F 41.4 °F 29.54 in SSW 2.0 mph 4.0 mph 92% 0.00 in
08:29 44.0 °F 41.8 °F 29.55 in SSW 2.0 mph 6.0 mph 92% 0.00 in
08:34 44.0 °F 41.8 °F 29.54 in SSW 2.0 mph 6.0 mph 92% 0.00 in
08:44 44.4 °F 42.2 °F 29.53 in SSW 2.0 mph 6.0 mph 92% 0.00 in
08:54 45.1 °F 42.6 °F 29.53 in SW 3.0 mph 8.0 mph 91% 0.00 in
08:59 45.4 °F 42.9 °F 29.53 in SSW 2.0 mph 10.0 mph 91% 0.00 in
09:04 45.7 °F 42.9 °F 29.53 in SSW 7.0 mph 7.0 mph 90% 0.00 in
09:09 45.8 °F 43.0 °F 29.53 in SW 4.0 mph 10.0 mph 90% 0.00 in
09:14 45.9 °F 42.8 °F 29.53 in SSW 3.0 mph 7.0 mph 89% 0.00 in
09:19 46.2 °F 43.1 °F 29.53 in SSW 6.0 mph 12.0 mph 89% 0.00 in
09:24 46.2 °F 42.8 °F 29.53 in SSW 4.0 mph 12.0 mph 88% 0.00 in
09:29 46.2 °F 42.5 °F 29.53 in SW 7.0 mph 16.0 mph 87% 0.00 in
09:34 46.1 °F 41.8 °F 29.53 in SW 8.0 mph 19.0 mph 85% 0.00 in
09:44 46.4 °F 40.2 °F 29.51 in SSW 7.0 mph 18.0 mph 79% 0.00 in
09:54 46.8 °F 39.3 °F 29.52 in South 7.0 mph 15.0 mph 75% 0.00 in
09:59 46.8 °F 39.3 °F 29.52 in South 7.0 mph 12.0 mph 75% 0.00 in
10:04 46.7 °F 39.5 °F 29.52 in South 7.0 mph 13.0 mph 76% 0.00 in
10:09 46.6 °F 39.4 °F 29.51 in SSW 7.0 mph 12.0 mph 76% 0.00 in
10:14 46.7 °F 39.2 °F 29.51 in SW 8.0 mph 16.0 mph 75% 0.00 in
10:19 46.7 °F 39.2 °F 29.51 in South 4.0 mph 14.0 mph 75% 0.00 in
10:24 47.4 °F 39.9 °F 29.51 in SW 7.0 mph 11.0 mph 75% 0.00 in
10:29 47.9 °F 40.0 °F 29.51 in South 6.0 mph 12.0 mph 74% 0.00 in
10:34 48.3 °F 40.0 °F 29.51 in South 6.0 mph 12.0 mph 73% 0.00 in
10:39 49.0 °F 40.0 °F 29.50 in SSW 6.0 mph 13.0 mph 71% 0.00 in
10:49 49.1 °F 39.4 °F 29.51 in SW 7.0 mph 15.0 mph 69% 0.00 in
10:54 48.6 °F 38.5 °F 29.52 in SW 8.0 mph 16.0 mph 68% 0.00 in
10:59 47.6 °F 38.3 °F 29.53 in WSW 9.0 mph 20.0 mph 70% 0.00 in
11:04 45.2 °F 37.1 °F 29.53 in WSW 15.0 mph 22.0 mph 73% 0.00 in
11:09 43.1 °F 36.4 °F 29.53 in WSW 8.0 mph 19.0 mph 77% 0.00 in
11:19 41.1 °F 35.1 °F 29.54 in WSW 14.0 mph 20.0 mph 79% 0.00 in
11:29 39.4 °F 34.4 °F 29.54 in WSW 12.0 mph 21.0 mph 82% 0.01 in
11:34 38.6 °F 33.9 °F 29.55 in SW 10.0 mph 18.0 mph 83% 0.01 in
11:39 38.1 °F 33.7 °F 29.55 in WSW 8.0 mph 18.0 mph 84% 0.01 in
11:44 37.8 °F 33.4 °F 29.55 in WSW 11.0 mph 22.0 mph 84% 0.02 in
11:49 37.7 °F 33.6 °F 29.55 in WSW 11.0 mph 24.0 mph 85% 0.02 in
11:54 37.5 °F 33.4 °F 29.55 in WSW 10.0 mph 24.0 mph 85% 0.02 in
11:59 37.5 °F 33.7 °F 29.55 in WSW 9.0 mph 18.0 mph 86% 0.02 in
12:04 37.4 °F 33.6 °F 29.55 in SW 8.0 mph 17.0 mph 86% 0.02 in
12:09 37.4 °F 33.6 °F 29.56 in SW 8.0 mph 16.0 mph 86% 0.02 in
12:14 37.1 °F 33.3 °F 29.56 in SW 9.0 mph 18.0 mph 86% 0.02 in
12:19 36.7 °F 32.9 °F 29.56 in SW 9.0 mph 18.0 mph 86% 0.02 in
12:24 36.4 °F 32.9 °F 29.56 in SSW 9.0 mph 19.0 mph 87% 0.02 in
12:29 36.3 °F 32.8 °F 29.56 in SW 10.0 mph 17.0 mph 87% 0.01 in
12:39 36.2 °F 32.7 °F 29.56 in WSW 6.0 mph 16.0 mph 87% 0.01 in
12:44 36.2 °F 32.7 °F 29.56 in WSW 7.0 mph 24.0 mph 87% 0.00 in
12:49 36.1 °F 32.6 °F 29.56 in SW 10.0 mph 24.0 mph 87% 0.00 in
12:54 36.0 °F 32.5 °F 29.57 in SW 10.0 mph 23.0 mph 87% 0.00 in
12:59 36.1 °F 32.6 °F 29.57 in SW 10.0 mph 23.0 mph 87% 0.00 in
13:04 36.0 °F 32.5 °F 29.57 in SW 7.0 mph 20.0 mph 87% 0.00 in
13:09 36.1 °F 32.6 °F 29.57 in SW 15.0 mph 18.0 mph 87% 0.00 in
13:14 36.2 °F 33.0 °F 29.57 in SW 9.0 mph 19.0 mph 88% 0.00 in
13:19 36.3 °F 33.1 °F 29.57 in WSW 8.0 mph 19.0 mph 88% 0.00 in
13:24 36.5 °F 33.3 °F 29.57 in WSW 10.0 mph 19.0 mph 88% 0.00 in
13:29 36.4 °F 33.2 °F 29.57 in SW 20.0 mph 24.0 mph 88% 0.00 in
13:34 36.4 °F 32.9 °F 29.57 in WSW 12.0 mph 24.0 mph 87% 0.00 in
13:39 36.4 °F 33.2 °F 29.57 in WSW 11.0 mph 20.0 mph 88% 0.00 in
13:44 36.3 °F 33.1 °F 29.57 in WSW 11.0 mph 23.0 mph 88% 0.00 in
13:49 36.4 °F 33.2 °F 29.57 in WSW 9.0 mph 20.0 mph 88% 0.00 in
13:59 36.7 °F 33.2 °F 29.57 in WSW 10.0 mph 22.0 mph 87% 0.00 in
14:09 36.7 °F 33.2 °F 29.57 in SW 18.0 mph 24.0 mph 87% 0.00 in
14:24 37.0 °F 33.2 °F 29.57 in SSW 15.0 mph 19.0 mph 86% 0.00 in
14:29 37.1 °F 33.3 °F 29.57 in WSW 7.0 mph 20.0 mph 86% 0.00 in
14:34 37.2 °F 33.4 °F 29.57 in WSW 11.0 mph 20.0 mph 86% 0.00 in
14:39 37.2 °F 33.4 °F 29.57 in WSW 11.0 mph 20.0 mph 86% 0.00 in
14:44 37.1 °F 33.3 °F 29.58 in WSW 11.0 mph 21.0 mph 86% 0.00 in
14:49 37.1 °F 33.3 °F 29.58 in WSW 7.0 mph 25.0 mph 86% 0.00 in
15:04 37.1 °F 33.3 °F 29.58 in WSW 11.0 mph 23.0 mph 86% 0.00 in
15:14 36.9 °F 33.1 °F 29.58 in SSW 15.0 mph 21.0 mph 86% 0.00 in
15:19 36.8 °F 33.0 °F 29.58 in WSW 11.0 mph 21.0 mph 86% 0.00 in
15:24 36.9 °F 32.8 °F 29.59 in WSW 8.0 mph 22.0 mph 85% 0.00 in
15:29 36.9 °F 32.8 °F 29.59 in WSW 13.0 mph 20.0 mph 85% 0.00 in
15:34 37.0 °F 32.9 °F 29.59 in SW 21.0 mph 21.0 mph 85% 0.00 in
15:39 36.9 °F 32.5 °F 29.59 in WSW 11.0 mph 21.0 mph 84% 0.00 in
15:44 36.9 °F 32.5 °F 29.59 in WSW 11.0 mph 21.0 mph 84% 0.00 in
15:49 36.8 °F 32.4 °F 29.60 in WSW 10.0 mph 21.0 mph 84% 0.00 in
15:54 36.7 °F 32.3 °F 29.59 in WSW 10.0 mph 19.0 mph 84% 0.00 in
15:59 36.7 °F 32.3 °F 29.60 in WSW 9.0 mph 19.0 mph 84% 0.00 in
16:04 36.6 °F 32.5 °F 29.60 in WSW 10.0 mph 21.0 mph 85% 0.00 in
16:09 36.5 °F 32.4 °F 29.60 in WSW 10.0 mph 21.0 mph 85% 0.00 in
16:14 36.4 °F 32.3 °F 29.60 in WSW 10.0 mph 19.0 mph 85% 0.00 in
16:19 36.2 °F 32.1 °F 29.60 in SW 13.0 mph 20.0 mph 85% 0.00 in
16:24 36.2 °F 32.4 °F 29.61 in SW 14.0 mph 18.0 mph 86% 0.00 in
16:29 36.1 °F 32.3 °F 29.61 in SW 12.0 mph 20.0 mph 86% 0.00 in
16:34 36.1 °F 32.3 °F 29.61 in SW 11.0 mph 20.0 mph 86% 0.00 in
16:39 36.0 °F 32.2 °F 29.61 in SW 18.0 mph 23.0 mph 86% 0.00 in
16:54 35.9 °F 32.1 °F 29.61 in WSW 13.0 mph 26.0 mph 86% 0.01 in
16:59 35.8 °F 32.0 °F 29.61 in WSW 14.0 mph 27.0 mph 86% 0.01 in
17:04 35.7 °F 31.9 °F 29.61 in WSW 15.0 mph 29.0 mph 86% 0.01 in
17:09 35.6 °F 31.8 °F 29.61 in WSW 14.0 mph 29.0 mph 86% 0.01 in
17:19 35.6 °F 32.1 °F 29.62 in WSW 14.0 mph 32.0 mph 87% 0.01 in
17:24 35.6 °F 32.1 °F 29.62 in West 16.0 mph 21.0 mph 87% 0.01 in
17:29 35.5 °F 32.0 °F 29.62 in WSW 16.0 mph 24.0 mph 87% 0.01 in
17:34 35.5 °F 32.0 °F 29.61 in SW 13.0 mph 28.0 mph 87% 0.01 in
17:39 35.6 °F 32.1 °F 29.62 in SW 16.0 mph 30.0 mph 87% 0.01 in
17:49 35.7 °F 31.9 °F 29.62 in SW 14.0 mph 34.0 mph 86% 0.01 in
17:54 35.9 °F 32.1 °F 29.62 in WSW 16.0 mph 34.0 mph 86% 0.00 in
17:59 36.0 °F 32.2 °F 29.62 in WSW 16.0 mph 32.0 mph 86% 0.00 in
18:09 36.1 °F 32.0 °F 29.63 in WSW 16.0 mph 31.0 mph 85% 0.00 in
18:14 36.1 °F 32.0 °F 29.63 in WSW 15.0 mph 29.0 mph 85% 0.00 in
18:19 36.0 °F 31.6 °F 29.63 in WSW 16.0 mph 32.0 mph 84% 0.00 in
18:24 35.9 °F 31.5 °F 29.63 in WSW 12.0 mph 32.0 mph 84% 0.00 in
18:29 35.6 °F 31.2 °F 29.64 in South 20.0 mph 28.0 mph 84% 0.00 in
18:34 35.5 °F 31.1 °F 29.64 in SW 10.0 mph 23.0 mph 84% 0.00 in
18:39 35.5 °F 31.1 °F 29.64 in WSW 20.0 mph 27.0 mph 84% 0.00 in
18:44 35.5 °F 30.8 °F 29.64 in SW 10.0 mph 30.0 mph 83% 0.00 in
18:49 35.5 °F 30.8 °F 29.64 in WSW 14.0 mph 24.0 mph 83% 0.00 in
18:54 35.4 °F 30.8 °F 29.65 in WSW 22.0 mph 26.0 mph 83% 0.00 in
18:59 35.2 °F 30.6 °F 29.65 in SW 12.0 mph 33.0 mph 83% 0.00 in
19:04 35.1 °F 30.5 °F 29.65 in WSW 15.0 mph 33.0 mph 83% 0.00 in
19:14 35.0 °F 30.4 °F 29.66 in WSW 16.0 mph 31.0 mph 83% 0.00 in
19:19 34.8 °F 30.2 °F 29.66 in WSW 16.0 mph 31.0 mph 83% 0.00 in
19:24 34.8 °F 30.2 °F 29.66 in WSW 11.0 mph 26.0 mph 83% 0.00 in
19:29 34.7 °F 30.4 °F 29.67 in WSW 10.0 mph 33.0 mph 84% 0.00 in
19:39 34.4 °F 30.1 °F 29.67 in WSW 14.0 mph 29.0 mph 84% 0.00 in
19:44 34.3 °F 30.0 °F 29.67 in WSW 15.0 mph 34.0 mph 84% 0.00 in
19:49 34.2 °F 29.9 °F 29.68 in WSW 16.0 mph 34.0 mph 84% 0.00 in
19:54 34.1 °F 29.8 °F 29.69 in SW 15.0 mph 30.0 mph 84% 0.00 in
20:04 33.8 °F 29.8 °F 29.69 in SW 10.0 mph 25.0 mph 85% 0.00 in
20:09 33.7 °F 29.7 °F 29.69 in WSW 12.0 mph 27.0 mph 85% 0.00 in
Buffalo, New York, USA
Compliments of Weather Underground - 2 mb